sensor_id;sensor_type;location;lat;lon;timestamp;pressure;altitude;pressure_sealevel;temperature;humidity
66486;BME280;53303;47.476;8.084;2023-05-06T00:01:01;95407.09;;;21.77;47.39
66486;BME280;53303;47.476;8.084;2023-05-06T00:03:26;95418.91;;;21.83;47.44
66486;BME280;53303;47.476;8.084;2023-05-06T00:05:52;95421.16;;;21.84;47.33
66486;BME280;53303;47.476;8.084;2023-05-06T00:08:18;95417.13;;;21.85;47.34
66486;BME280;53303;47.476;8.084;2023-05-06T00:10:46;95413.63;;;21.79;47.64
66486;BME280;53303;47.476;8.084;2023-05-06T00:13:12;95416.34;;;21.85;47.38
66486;BME280;53303;47.476;8.084;2023-05-06T00:15:38;95417.66;;;21.84;47.44
66486;BME280;53303;47.476;8.084;2023-05-06T00:18:04;95408.31;;;21.81;47.38
66486;BME280;53303;47.476;8.084;2023-05-06T00:20:30;95406.53;;;21.84;47.18
66486;BME280;53303;47.476;8.084;2023-05-06T00:22:56;95405.06;;;21.77;47.35
66486;BME280;53303;47.476;8.084;2023-05-06T00:25:23;95405.03;;;21.83;47.26
66486;BME280;53303;47.476;8.084;2023-05-06T00:27:52;95402.53;;;21.79;47.33
66486;BME280;53303;47.476;8.084;2023-05-06T00:30:17;95404.28;;;21.82;47.26
66486;BME280;53303;47.476;8.084;2023-05-06T00:32:43;95393.22;;;21.77;47.17
66486;BME280;53303;47.476;8.084;2023-05-06T00:35:09;95401.78;;;21.79;47.20
66486;BME280;53303;47.476;8.084;2023-05-06T00:37:35;95396.00;;;21.77;47.28
66486;BME280;53303;47.476;8.084;2023-05-06T00:40:01;95397.72;;;21.80;47.16
66486;BME280;53303;47.476;8.084;2023-05-06T00:42:27;95396.47;;;21.81;47.21
66486;BME280;53303;47.476;8.084;2023-05-06T00:44:53;95396.97;;;21.79;47.14
66486;BME280;53303;47.476;8.084;2023-05-06T00:47:19;95396.47;;;21.81;47.30
66486;BME280;53303;47.476;8.084;2023-05-06T00:49:46;95392.41;;;21.82;47.17
66486;BME280;53303;47.476;8.084;2023-05-06T00:52:13;95387.44;;;21.75;47.13
66486;BME280;53303;47.476;8.084;2023-05-06T00:54:39;95388.19;;;21.75;47.22
66486;BME280;53303;47.476;8.084;2023-05-06T00:57:04;95392.72;;;21.78;47.23
66486;BME280;53303;47.476;8.084;2023-05-06T00:59:30;95396.22;;;21.79;47.26
66486;BME280;53303;47.476;8.084;2023-05-06T01:01:55;95372.16;;;21.62;47.26
66486;BME280;53303;47.476;8.084;2023-05-06T01:04:24;95392.94;;;21.80;47.19
66486;BME280;53303;47.476;8.084;2023-05-06T01:16:01;95383.22;;;21.68;47.23
66486;BME280;53303;47.476;8.084;2023-05-06T01:18:30;95390.44;;;21.77;47.11
66486;BME280;53303;47.476;8.084;2023-05-06T01:20:58;95398.25;;;21.78;47.06
66486;BME280;53303;47.476;8.084;2023-05-06T01:23:23;95388.41;;;21.77;47.15
66486;BME280;53303;47.476;8.084;2023-05-06T01:25:49;95396.00;;;21.77;47.10
66486;BME280;53303;47.476;8.084;2023-05-06T01:28:14;95395.50;;;21.73;47.44
66486;BME280;53303;47.476;8.084;2023-05-06T01:33:16;95392.75;;;21.73;46.88
66486;BME280;53303;47.476;8.084;2023-05-06T01:41:00;95389.97;;;21.73;47.05
66486;BME280;53303;47.476;8.084;2023-05-06T01:43:29;95395.22;;;21.76;47.02
66486;BME280;53303;47.476;8.084;2023-05-06T01:45:57;95391.72;;;21.76;47.06
66486;BME280;53303;47.476;8.084;2023-05-06T01:48:27;95386.91;;;21.76;46.95
66486;BME280;53303;47.476;8.084;2023-05-06T01:50:54;95388.94;;;21.76;46.89
66486;BME280;53303;47.476;8.084;2023-05-06T01:53:20;95384.66;;;21.75;47.10
66486;BME280;53303;47.476;8.084;2023-05-06T01:55:48;95388.19;;;21.75;46.87
66486;BME280;53303;47.476;8.084;2023-05-06T01:58:14;95377.81;;;21.76;47.11
66486;BME280;53303;47.476;8.084;2023-05-06T02:00:40;95388.19;;;21.75;47.02
66486;BME280;53303;47.476;8.084;2023-05-06T02:03:05;95387.44;;;21.75;47.08
66486;BME280;53303;47.476;8.084;2023-05-06T02:05:31;95381.88;;;21.75;46.87
66486;BME280;53303;47.476;8.084;2023-05-06T02:07:56;95378.84;;;21.73;46.91
66486;BME280;53303;47.476;8.084;2023-05-06T02:10:21;95375.09;;;21.70;47.13
66486;BME280;53303;47.476;8.084;2023-05-06T02:12:47;95385.91;;;21.74;46.87
66486;BME280;53303;47.476;8.084;2023-05-06T02:15:13;95387.72;;;21.71;46.94
66486;BME280;53303;47.476;8.084;2023-05-06T02:17:38;95375.63;;;21.68;46.88
66486;BME280;53303;47.476;8.084;2023-05-06T02:20:04;95368.56;;;21.67;47.06
66486;BME280;53303;47.476;8.084;2023-05-06T02:22:30;95373.84;;;21.71;46.96
66486;BME280;53303;47.476;8.084;2023-05-06T02:24:55;95380.13;;;21.72;47.01
66486;BME280;53303;47.476;8.084;2023-05-06T02:27:21;95373.06;;;21.71;46.86
66486;BME280;53303;47.476;8.084;2023-05-06T02:29:48;95380.38;;;21.74;46.75
66486;BME280;53303;47.476;8.084;2023-05-06T02:32:14;95373.84;;;21.71;46.98
66486;BME280;53303;47.476;8.084;2023-05-06T02:34:42;95387.97;;;21.73;47.05
66486;BME280;53303;47.476;8.084;2023-05-06T02:37:07;95373.06;;;21.71;46.98
66486;BME280;53303;47.476;8.084;2023-05-06T02:39:33;95370.81;;;21.69;46.83
66486;BME280;53303;47.476;8.084;2023-05-06T02:41:58;95370.88;;;21.63;46.74
66486;BME280;53303;47.476;8.084;2023-05-06T02:44:23;95374.59;;;21.72;46.98
66486;BME280;53303;47.476;8.084;2023-05-06T02:46:49;95357.97;;;21.66;46.72
66486;BME280;53303;47.476;8.084;2023-05-06T02:49:14;95359.69;;;21.69;46.80
66486;BME280;53303;47.476;8.084;2023-05-06T02:51:40;95367.00;;;21.72;46.94
66486;BME280;53303;47.476;8.084;2023-05-06T02:54:05;95362.47;;;21.69;46.70
66486;BME280;53303;47.476;8.084;2023-05-06T02:56:31;95367.75;;;21.73;46.75
66486;BME280;53303;47.476;8.084;2023-05-06T02:58:59;95364.75;;;21.71;46.81
66486;BME280;53303;47.476;8.084;2023-05-06T03:01:24;95370.28;;;21.71;46.75
66486;BME280;53303;47.476;8.084;2023-05-06T03:03:50;95370.28;;;21.71;46.74
66486;BME280;53303;47.476;8.084;2023-05-06T03:06:15;95363.25;;;21.70;46.83
66486;BME280;53303;47.476;8.084;2023-05-06T03:08:40;95359.69;;;21.69;46.89
66486;BME280;53303;47.476;8.084;2023-05-06T03:11:06;95334.59;;;21.56;46.94
66486;BME280;53303;47.476;8.084;2023-05-06T03:13:31;95364.75;;;21.71;46.70
66486;BME280;53303;47.476;8.084;2023-05-06T03:15:57;95371.59;;;21.70;46.77
66486;BME280;53303;47.476;8.084;2023-05-06T03:18:22;95363.25;;;21.70;46.92
66486;BME280;53303;47.476;8.084;2023-05-06T03:20:48;95371.59;;;21.70;46.82
66486;BME280;53303;47.476;8.084;2023-05-06T03:23:13;95365.81;;;21.67;46.69
66486;BME280;53303;47.476;8.084;2023-05-06T03:25:39;95369.84;;;21.66;46.88
66486;BME280;53303;47.476;8.084;2023-05-06T03:28:07;95367.81;;;21.67;46.83
66486;BME280;53303;47.476;8.084;2023-05-06T03:30:32;95370.81;;;21.69;46.69
66486;BME280;53303;47.476;8.084;2023-05-06T03:33:01;95363.81;;;21.62;46.72
66486;BME280;53303;47.476;8.084;2023-05-06T03:35:29;95367.28;;;21.68;46.63
66486;BME280;53303;47.476;8.084;2023-05-06T03:37:54;95372.84;;;21.68;46.67
66486;BME280;53303;47.476;8.084;2023-05-06T03:40:19;95358.56;;;21.59;46.71
66486;BME280;53303;47.476;8.084;2023-05-06T03:42:45;95367.28;;;21.68;46.68
66486;BME280;53303;47.476;8.084;2023-05-06T03:45:10;95368.56;;;21.67;46.67
66486;BME280;53303;47.476;8.084;2023-05-06T03:47:36;95356.75;;;21.61;46.71
66486;BME280;53303;47.476;8.084;2023-05-06T03:50:02;95353.97;;;21.61;46.59
66486;BME280;53303;47.476;8.084;2023-05-06T03:52:28;95363.28;;;21.64;46.77
66486;BME280;53303;47.476;8.084;2023-05-06T03:54:53;95362.25;;;21.67;46.57
66486;BME280;53303;47.476;8.084;2023-05-06T03:57:19;95362.75;;;21.65;46.82
66486;BME280;53303;47.476;8.084;2023-05-06T03:59:44;95371.09;;;21.65;46.65
66486;BME280;53303;47.476;8.084;2023-05-06T04:02:10;95376.13;;;21.67;46.87
66486;BME280;53303;47.476;8.084;2023-05-06T04:04:38;95371.09;;;21.65;46.67
66486;BME280;53303;47.476;8.084;2023-05-06T04:07:06;95353.75;;;21.59;46.79
66486;BME280;53303;47.476;8.084;2023-05-06T04:09:32;95365.53;;;21.65;46.72
66486;BME280;53303;47.476;8.084;2023-05-06T04:11:57;95349.47;;;21.58;46.80
66486;BME280;53303;47.476;8.084;2023-05-06T04:14:25;95362.75;;;21.65;46.61
66486;BME280;53303;47.476;8.084;2023-05-06T04:16:50;95357.78;;;21.58;46.52
66486;BME280;53303;47.476;8.084;2023-05-06T04:19:16;95364.78;;;21.65;46.61
66486;BME280;53303;47.476;8.084;2023-05-06T04:21:42;95367.56;;;21.65;46.70
66486;BME280;53303;47.476;8.084;2023-05-06T04:24:10;95356.25;;;21.63;46.84
66486;BME280;53303;47.476;8.084;2023-05-06T04:26:35;95358.28;;;21.62;46.67
66486;BME280;53303;47.476;8.084;2023-05-06T04:29:01;95360.03;;;21.60;46.61
66486;BME280;53303;47.476;8.084;2023-05-06T04:31:26;95362.53;;;21.63;46.74
66486;BME280;53303;47.476;8.084;2023-05-06T04:33:54;95360.50;;;21.64;46.70
66486;BME280;53303;47.476;8.084;2023-05-06T04:36:20;95352.72;;;21.62;46.67
66486;BME280;53303;47.476;8.084;2023-05-06T04:38:50;95349.69;;;21.60;46.85
66486;BME280;53303;47.476;8.084;2023-05-06T04:41:17;95355.72;;;21.64;46.73
66486;BME280;53303;47.476;8.084;2023-05-06T04:43:43;95346.63;;;21.64;46.80
66486;BME280;53303;47.476;8.084;2023-05-06T04:46:08;95351.44;;;21.63;46.66
66486;BME280;53303;47.476;8.084;2023-05-06T04:48:35;95361.28;;;21.64;46.78
66486;BME280;53303;47.476;8.084;2023-05-06T04:51:00;95373.88;;;21.65;46.80
66486;BME280;53303;47.476;8.084;2023-05-06T04:53:28;95358.50;;;21.64;46.74
66486;BME280;53303;47.476;8.084;2023-05-06T04:55:54;95363.28;;;21.64;46.71
66486;BME280;53303;47.476;8.084;2023-05-06T04:58:19;95345.72;;;21.56;46.47
66486;BME280;53303;47.476;8.084;2023-05-06T05:00:49;95346.69;;;21.58;46.55
66486;BME280;53303;47.476;8.084;2023-05-06T05:03:15;95352.94;;;21.64;46.70
66486;BME280;53303;47.476;8.084;2023-05-06T05:05:40;95347.69;;;21.61;46.54
66486;BME280;53303;47.476;8.084;2023-05-06T05:08:06;95337.22;;;21.48;46.74
66486;BME280;53303;47.476;8.084;2023-05-06T05:10:31;95362.31;;;21.61;46.73
66486;BME280;53303;47.476;8.084;2023-05-06T05:12:57;95364.06;;;21.64;46.73
66486;BME280;53303;47.476;8.084;2023-05-06T05:15:22;95366.06;;;21.64;46.86
66486;BME280;53303;47.476;8.084;2023-05-06T05:17:49;95379.44;;;21.65;46.63
66486;BME280;53303;47.476;8.084;2023-05-06T05:20:14;95377.94;;;21.64;46.76
66486;BME280;53303;47.476;8.084;2023-05-06T05:22:40;95378.44;;;21.63;46.75
66486;BME280;53303;47.476;8.084;2023-05-06T05:25:06;95364.84;;;21.59;46.73
66486;BME280;53303;47.476;8.084;2023-05-06T05:27:31;95368.09;;;21.63;46.73
66486;BME280;53303;47.476;8.084;2023-05-06T05:29:57;95366.06;;;21.64;46.63
66486;BME280;53303;47.476;8.084;2023-05-06T05:32:22;95358.78;;;21.61;46.69
66486;BME280;53303;47.476;8.084;2023-05-06T05:34:48;95364.13;;;21.59;46.73
66486;BME280;53303;47.476;8.084;2023-05-06T05:37:16;95372.91;;;21.63;46.80
66486;BME280;53303;47.476;8.084;2023-05-06T05:39:41;95364.41;;;21.55;46.60
66486;BME280;53303;47.476;8.084;2023-05-06T05:42:09;95380.72;;;21.64;46.42
66486;BME280;53303;47.476;8.084;2023-05-06T05:44:34;95368.16;;;21.58;46.82
66486;BME280;53303;47.476;8.084;2023-05-06T05:47:01;95368.91;;;21.58;46.81
66486;BME280;53303;47.476;8.084;2023-05-06T05:49:26;95369.41;;;21.57;46.82
66486;BME280;53303;47.476;8.084;2023-05-06T05:51:54;95378.22;;;21.61;46.50
66486;BME280;53303;47.476;8.084;2023-05-06T05:54:20;95376.75;;;21.54;46.70
66486;BME280;53303;47.476;8.084;2023-05-06T05:56:45;95388.28;;;21.64;46.55
66486;BME280;53303;47.476;8.084;2023-05-06T05:59:11;95386.03;;;21.62;46.70
66486;BME280;53303;47.476;8.084;2023-05-06T06:01:38;95384.00;;;21.63;46.80
66486;BME280;53303;47.476;8.084;2023-05-06T06:04:04;95379.44;;;21.65;46.75
66486;BME280;53303;47.476;8.084;2023-05-06T06:06:29;95367.63;;;21.59;46.77
66486;BME280;53303;47.476;8.084;2023-05-06T06:08:55;95367.56;;;21.65;46.76
66486;BME280;53303;47.476;8.084;2023-05-06T06:11:21;95372.38;;;21.64;46.72
66486;BME280;53303;47.476;8.084;2023-05-06T06:13:46;95366.81;;;21.64;46.63
66486;BME280;53303;47.476;8.084;2023-05-06T06:16:12;95371.59;;;21.64;46.63
66486;BME280;53303;47.476;8.084;2023-05-06T06:18:39;95374.94;;;21.62;46.54
66486;BME280;53303;47.476;8.084;2023-05-06T06:21:05;95382.19;;;21.65;46.82
66486;BME280;53303;47.476;8.084;2023-05-06T06:23:33;95385.75;;;21.66;46.66
66486;BME280;53303;47.476;8.084;2023-05-06T06:25:58;95384.97;;;21.65;46.97
66486;BME280;53303;47.476;8.084;2023-05-06T06:28:23;95384.97;;;21.65;46.97
66486;BME280;53303;47.476;8.084;2023-05-06T06:30:49;95391.53;;;21.68;47.31
66486;BME280;53303;47.476;8.084;2023-05-06T06:33:14;95381.22;;;21.63;47.38
66486;BME280;53303;47.476;8.084;2023-05-06T06:35:40;95389.50;;;21.68;47.31
66486;BME280;53303;47.476;8.084;2023-05-06T06:38:05;95383.50;;;21.64;47.47
66486;BME280;53303;47.476;8.084;2023-05-06T06:40:31;95381.97;;;21.63;47.50
66486;BME280;53303;47.476;8.084;2023-05-06T06:42:56;95387.25;;;21.67;47.49
66486;BME280;53303;47.476;8.084;2023-05-06T06:45:22;95390.78;;;21.67;47.48
66486;BME280;53303;47.476;8.084;2023-05-06T06:47:48;95394.09;;;21.66;47.53
66486;BME280;53303;47.476;8.084;2023-05-06T06:50:13;95388.00;;;21.67;47.40
66486;BME280;53303;47.476;8.084;2023-05-06T06:52:39;95387.25;;;21.67;47.33
66486;BME280;53303;47.476;8.084;2023-05-06T06:55:04;95390.53;;;21.65;47.50
66486;BME280;53303;47.476;8.084;2023-05-06T06:57:33;95380.47;;;21.62;47.26
66486;BME280;53303;47.476;8.084;2023-05-06T06:59:58;95387.25;;;21.67;47.45
66486;BME280;53303;47.476;8.084;2023-05-06T07:02:23;95377.16;;;21.64;47.63
66486;BME280;53303;47.476;8.084;2023-05-06T07:04:49;95382.19;;;21.65;47.48
66486;BME280;53303;47.476;8.084;2023-05-06T07:07:14;95372.38;;;21.64;47.46
66486;BME280;53303;47.476;8.084;2023-05-06T07:09:42;95376.66;;;21.65;47.54
66486;BME280;53303;47.476;8.084;2023-05-06T07:12:08;95375.44;;;21.61;47.49
66486;BME280;53303;47.476;8.084;2023-05-06T07:14:33;95369.91;;;21.61;47.62
66486;BME280;53303;47.476;8.084;2023-05-06T07:16:59;95371.09;;;21.65;47.56
66486;BME280;53303;47.476;8.084;2023-05-06T07:19:26;95375.91;;;21.65;47.61
66486;BME280;53303;47.476;8.084;2023-05-06T07:21:51;95379.44;;;21.65;47.40
66486;BME280;53303;47.476;8.084;2023-05-06T07:24:17;95371.59;;;21.64;47.54
66486;BME280;53303;47.476;8.084;2023-05-06T07:26:42;95372.66;;;21.61;47.31
66486;BME280;53303;47.476;8.084;2023-05-06T07:29:08;95381.22;;;21.63;47.37
66486;BME280;53303;47.476;8.084;2023-05-06T07:31:33;95378.69;;;21.65;47.42
66486;BME280;53303;47.476;8.084;2023-05-06T07:33:58;95377.72;;;21.62;47.35
66486;BME280;53303;47.476;8.084;2023-05-06T07:36:24;95371.88;;;21.66;47.29
66486;BME280;53303;47.476;8.084;2023-05-06T07:38:52;95384.22;;;21.65;47.50
66486;BME280;53303;47.476;8.084;2023-05-06T07:41:18;95384.97;;;21.65;47.50
66486;BME280;53303;47.476;8.084;2023-05-06T07:43:43;95384.22;;;21.65;47.40
66486;BME280;53303;47.476;8.084;2023-05-06T07:46:09;95381.47;;;21.65;47.59
66486;BME280;53303;47.476;8.084;2023-05-06T07:48:35;95382.97;;;21.66;47.25
66486;BME280;53303;47.476;8.084;2023-05-06T07:51:01;95390.53;;;21.65;47.25
66486;BME280;53303;47.476;8.084;2023-05-06T07:53:27;95392.06;;;21.66;47.30
66486;BME280;53303;47.476;8.084;2023-05-06T07:55:52;95396.84;;;21.66;47.24
66486;BME280;53303;47.476;8.084;2023-05-06T07:58:21;95391.31;;;21.66;47.37
66486;BME280;53303;47.476;8.084;2023-05-06T08:00:49;95394.09;;;21.66;47.40
66486;BME280;53303;47.476;8.084;2023-05-06T08:03:16;95386.78;;;21.63;47.38
66486;BME280;53303;47.476;8.084;2023-05-06T08:05:42;95392.78;;;21.67;47.21
66486;BME280;53303;47.476;8.084;2023-05-06T08:08:10;95392.78;;;21.67;47.29
66486;BME280;53303;47.476;8.084;2023-05-06T08:10:35;95392.28;;;21.68;47.35
66486;BME280;53303;47.476;8.084;2023-05-06T08:13:00;95388.03;;;21.62;47.08
66486;BME280;53303;47.476;8.084;2023-05-06T08:15:26;95382.25;;;21.60;47.59
66486;BME280;53303;47.476;8.084;2023-05-06T08:17:51;95386.72;;;21.68;47.22
66486;BME280;53303;47.476;8.084;2023-05-06T08:20:17;95385.25;;;21.67;47.14
66486;BME280;53303;47.476;8.084;2023-05-06T08:22:42;95382.72;;;21.64;47.26
66486;BME280;53303;47.476;8.084;2023-05-06T08:25:08;95392.06;;;21.66;46.91
66486;BME280;53303;47.476;8.084;2023-05-06T08:27:33;95384.00;;;21.63;47.31
66486;BME280;53303;47.476;8.084;2023-05-06T08:29:59;95379.44;;;21.65;47.01
66486;BME280;53303;47.476;8.084;2023-05-06T08:32:24;95395.06;;;21.68;47.22
66486;BME280;53303;47.476;8.084;2023-05-06T08:34:50;95391.31;;;21.66;47.09
66486;BME280;53303;47.476;8.084;2023-05-06T08:37:15;95385.97;;;21.68;46.96
66486;BME280;53303;47.476;8.084;2023-05-06T08:39:41;95381.97;;;21.63;47.00
66486;BME280;53303;47.476;8.084;2023-05-06T08:42:08;95381.91;;;21.69;46.97
66486;BME280;53303;47.476;8.084;2023-05-06T08:44:35;95378.41;;;21.68;47.23
66486;BME280;53303;47.476;8.084;2023-05-06T08:47:00;95388.00;;;21.67;47.06
66486;BME280;53303;47.476;8.084;2023-05-06T08:49:27;95375.69;;;21.63;47.13
66486;BME280;53303;47.476;8.084;2023-05-06T08:51:52;95380.66;;;21.70;47.17
66486;BME280;53303;47.476;8.084;2023-05-06T08:54:18;95383.22;;;21.68;47.07
66486;BME280;53303;47.476;8.084;2023-05-06T08:56:47;95376.13;;;21.67;47.19
66486;BME280;53303;47.476;8.084;2023-05-06T08:59:13;95380.66;;;21.70;47.15
66486;BME280;53303;47.476;8.084;2023-05-06T09:01:38;95386.22;;;21.70;47.22
66486;BME280;53303;47.476;8.084;2023-05-06T09:04:05;95367.13;;;21.61;46.88
66486;BME280;53303;47.476;8.084;2023-05-06T09:06:34;95377.88;;;21.70;47.01
66486;BME280;53303;47.476;8.084;2023-05-06T09:08:59;95380.13;;;21.72;46.99
66486;BME280;53303;47.476;8.084;2023-05-06T09:11:27;95372.31;;;21.70;47.04
66486;BME280;53303;47.476;8.084;2023-05-06T09:14:15;95367.28;;;21.68;46.99
66486;BME280;53303;47.476;8.084;2023-05-06T09:16:43;95371.81;;;21.72;46.81
66486;BME280;53303;47.476;8.084;2023-05-06T09:19:09;95365.81;;;21.67;46.97
66486;BME280;53303;47.476;8.084;2023-05-06T09:21:42;95358.72;;;21.66;46.97
66486;BME280;53303;47.476;8.084;2023-05-06T09:24:09;95369.03;;;21.72;46.93
66486;BME280;53303;47.476;8.084;2023-05-06T09:26:37;95367.75;;;21.73;46.87
66486;BME280;53303;47.476;8.084;2023-05-06T09:29:06;95368.03;;;21.69;46.82
66486;BME280;53303;47.476;8.084;2023-05-06T09:31:32;95361.44;;;21.72;46.92
66486;BME280;53303;47.476;8.084;2023-05-06T09:33:58;95363.69;;;21.74;46.99
66486;BME280;53303;47.476;8.084;2023-05-06T09:36:26;95351.09;;;21.73;46.89
66486;BME280;53303;47.476;8.084;2023-05-06T09:38:52;95340.31;;;21.63;46.80
66486;BME280;53303;47.476;8.084;2023-05-06T09:41:20;95336.22;;;21.70;46.92
66486;BME280;53303;47.476;8.084;2023-05-06T09:43:47;95338.72;;;21.74;46.88
66486;BME280;53303;47.476;8.084;2023-05-06T09:46:16;95345.78;;;21.75;46.93
66486;BME280;53303;47.476;8.084;2023-05-06T09:48:42;95343.00;;;21.75;46.81
66486;BME280;53303;47.476;8.084;2023-05-06T09:51:07;95336.69;;;21.74;47.15
66486;BME280;53303;47.476;8.084;2023-05-06T09:53:34;95340.97;;;21.75;46.91
66486;BME280;53303;47.476;8.084;2023-05-06T09:56:05;95339.69;;;21.76;46.95
66486;BME280;53303;47.476;8.084;2023-05-06T09:58:32;95336.16;;;21.76;47.08
66486;BME280;53303;47.476;8.084;2023-05-06T10:00:58;95331.34;;;21.76;46.83
66486;BME280;53303;47.476;8.084;2023-05-06T10:03:24;95322.78;;;21.74;46.86
66486;BME280;53303;47.476;8.084;2023-05-06T10:05:53;95320.31;;;21.71;46.82
66486;BME280;53303;47.476;8.084;2023-05-06T10:08:19;95326.63;;;21.71;46.93
66486;BME280;53303;47.476;8.084;2023-05-06T10:10:48;95306.94;;;21.69;46.65
66486;BME280;53303;47.476;8.084;2023-05-06T10:13:15;95323.78;;;21.77;46.97
66486;BME280;53303;47.476;8.084;2023-05-06T10:15:44;95317.25;;;21.74;46.75
66486;BME280;53303;47.476;8.084;2023-05-06T10:18:12;95329.34;;;21.77;46.72
66486;BME280;53303;47.476;8.084;2023-05-06T10:20:40;95314.47;;;21.74;46.79
66486;BME280;53303;47.476;8.084;2023-05-06T10:23:42;95315.53;;;21.71;46.89
66486;BME280;53303;47.476;8.084;2023-05-06T10:26:16;95319.72;;;21.78;47.11
66486;BME280;53303;47.476;8.084;2023-05-06T10:28:45;95320.50;;;21.78;46.87
66486;BME280;53303;47.476;8.084;2023-05-06T10:31:13;95321.97;;;21.79;46.98
66486;BME280;53303;47.476;8.084;2023-05-06T10:33:41;95311.16;;;21.76;46.71
66486;BME280;53303;47.476;8.084;2023-05-06T10:36:21;95310.59;;;21.83;46.73
66486;BME280;53303;47.476;8.084;2023-05-06T10:38:51;95301.81;;;21.79;46.56
66486;BME280;53303;47.476;8.084;2023-05-06T10:41:19;95309.31;;;21.84;46.80
66486;BME280;53303;47.476;8.084;2023-05-06T10:43:46;95306.31;;;21.82;46.50
66486;BME280;53303;47.476;8.084;2023-05-06T10:46:15;95303.25;;;21.85;46.62
66486;BME280;53303;47.476;8.084;2023-05-06T10:51:36;95307.28;;;21.84;46.54
66486;BME280;53303;47.476;8.084;2023-05-06T10:59:08;95299.69;;;21.85;46.56
66486;BME280;53303;47.476;8.084;2023-05-06T11:01:37;95295.66;;;21.86;46.80
66486;BME280;53303;47.476;8.084;2023-05-06T11:04:07;95298.97;;;21.84;46.61
66486;BME280;53303;47.476;8.084;2023-05-06T11:06:44;95294.38;;;21.87;46.58
66486;BME280;53303;47.476;8.084;2023-05-06T11:09:28;95293.41;;;21.84;46.78
66486;BME280;53303;47.476;8.084;2023-05-06T11:12:03;95292.34;;;21.88;46.54
66486;BME280;53303;47.476;8.084;2023-05-06T11:17:01;95280.72;;;21.89;46.69
66486;BME280;53303;47.476;8.084;2023-05-06T11:19:30;95285.00;;;21.90;46.56
66486;BME280;53303;47.476;8.084;2023-05-06T11:21:58;95269.97;;;21.80;46.43
66486;BME280;53303;47.476;8.084;2023-05-06T11:24:26;95286.28;;;21.89;46.49
66486;BME280;53303;47.476;8.084;2023-05-06T11:26:52;95285.00;;;21.90;46.59
66486;BME280;53303;47.476;8.084;2023-05-06T11:29:18;95285.00;;;21.90;46.57
66486;BME280;53303;47.476;8.084;2023-05-06T11:31:44;95282.00;;;21.88;46.58
66486;BME280;53303;47.476;8.084;2023-05-06T11:34:12;95283.72;;;21.91;46.55
66486;BME280;53303;47.476;8.084;2023-05-06T11:37:00;95276.44;;;21.88;46.48
66486;BME280;53303;47.476;8.084;2023-05-06T11:39:27;95286.00;;;21.93;46.20
66486;BME280;53303;47.476;8.084;2023-05-06T11:42:01;95274.41;;;21.89;46.52
66486;BME280;53303;47.476;8.084;2023-05-06T11:44:31;95276.81;;;21.79;46.69
66486;BME280;53303;47.476;8.084;2023-05-06T11:47:05;95274.91;;;21.87;46.66
66486;BME280;53303;47.476;8.084;2023-05-06T11:52:02;95280.94;;;21.91;46.56
66486;BME280;53303;47.476;8.084;2023-05-06T11:54:27;95275.41;;;21.91;46.49
66486;BME280;53303;47.476;8.084;2023-05-06T11:56:54;95275.91;;;21.90;46.58
66486;BME280;53303;47.476;8.084;2023-05-06T11:59:34;95275.41;;;21.91;46.37
66486;BME280;53303;47.476;8.084;2023-05-06T12:02:03;95269.84;;;21.91;46.61
66486;BME280;53303;47.476;8.084;2023-05-06T12:04:43;95269.63;;;21.89;46.43
66486;BME280;53303;47.476;8.084;2023-05-06T12:07:11;95268.56;;;21.92;46.63
66486;BME280;53303;47.476;8.084;2023-05-06T12:09:38;95265.78;;;21.92;46.56
66486;BME280;53303;47.476;8.084;2023-05-06T12:12:07;95251.00;;;21.84;46.42
66486;BME280;53303;47.476;8.084;2023-05-06T12:14:35;95269.31;;;21.93;46.51
66486;BME280;53303;47.476;8.084;2023-05-06T12:17:01;95273.06;;;21.95;46.44
66486;BME280;53303;47.476;8.084;2023-05-06T12:19:28;95273.06;;;21.95;46.53
66486;BME280;53303;47.476;8.084;2023-05-06T12:21:53;95266.00;;;21.94;46.54
66486;BME280;53303;47.476;8.084;2023-05-06T12:24:29;95270.06;;;21.93;46.31
66486;BME280;53303;47.476;8.084;2023-05-06T12:26:54;95280.66;;;21.95;46.42
66486;BME280;53303;47.476;8.084;2023-05-06T12:29:20;95272.41;;;21.89;46.51
66486;BME280;53303;47.476;8.084;2023-05-06T12:31:46;95275.31;;;21.97;46.33
66486;BME280;53303;47.476;8.084;2023-05-06T12:34:16;95272.31;;;21.95;46.46
66486;BME280;53303;47.476;8.084;2023-05-06T12:36:45;95276.06;;;21.97;46.52
66486;BME280;53303;47.476;8.084;2023-05-06T12:39:12;95270.50;;;21.97;46.51
66486;BME280;53303;47.476;8.084;2023-05-06T12:41:43;95268.72;;;22.00;46.33
66486;BME280;53303;47.476;8.084;2023-05-06T12:44:37;95269.03;;;21.96;46.33
66486;BME280;53303;47.476;8.084;2023-05-06T12:47:08;95269.47;;;22.00;46.15
66486;BME280;53303;47.476;8.084;2023-05-06T12:49:46;95257.63;;;22.00;46.26
66486;BME280;53303;47.476;8.084;2023-05-06T12:52:12;95255.81;;;22.02;46.30
66486;BME280;53303;47.476;8.084;2023-05-06T12:54:37;95255.59;;;22.00;46.28
66486;BME280;53303;47.476;8.084;2023-05-06T12:57:05;95254.03;;;22.05;46.16
66486;BME280;53303;47.476;8.084;2023-05-06T12:59:31;95258.06;;;22.04;46.29
66486;BME280;53303;47.476;8.084;2023-05-06T13:01:57;95257.84;;;22.02;46.21
66486;BME280;53303;47.476;8.084;2023-05-06T13:04:24;95250.69;;;22.06;46.43
66486;BME280;53303;47.476;8.084;2023-05-06T13:06:50;95250.16;;;22.08;46.20
66486;BME280;53303;47.476;8.084;2023-05-06T13:09:16;95239.81;;;22.09;46.33
66486;BME280;53303;47.476;8.084;2023-05-06T13:11:42;95241.63;;;22.06;46.19
66486;BME280;53303;47.476;8.084;2023-05-06T13:14:07;95240.03;;;22.11;46.22
66486;BME280;53303;47.476;8.084;2023-05-06T13:16:33;95245.59;;;22.11;46.20
66486;BME280;53303;47.476;8.084;2023-05-06T13:18:59;95238.22;;;22.13;46.08
66486;BME280;53303;47.476;8.084;2023-05-06T13:21:25;95239.22;;;22.16;46.12
66486;BME280;53303;47.476;8.084;2023-05-06T13:23:51;95237.19;;;22.16;46.19
66486;BME280;53303;47.476;8.084;2023-05-06T13:26:16;95233.88;;;22.18;46.13
66486;BME280;53303;47.476;8.084;2023-05-06T13:28:42;95232.38;;;22.17;46.24